Nearby METAR Reports



KADS - Dallas/Addison, Texas, USA
Distance from station: SSW 10mi, 16km
Updated: Sun, 20-Oct-2019 5:59am CDT
Clear
Clear
 Wind from calm
Wind: Calm
Temperature: 59°F , 15°C
Dew Point: 54°F , 12°C
Humidity: 82%
Barometer: 29.81 inHg , 1009.5 hPa
Clouds: Clear
Visibility: 10 miles , 16 km
2019/10/20 10:59 KADS 201059Z 00000KT 10SM SKC 15/12 A2981
KTKI - Mckinney, Texas, USA
Distance from station: ENE 11mi, 18km
Updated: Sun, 20-Oct-2019 5:53am CDT
Clear
Clear
 Wind from calm
Wind: Calm
Temperature: 54°F , 12°C
Dew Point: 52°F , 11°C
Humidity: 94%
Barometer: 29.81 inHg , 1009.5 hPa
Clouds: Clear
Visibility: 10 miles , 16 km
2019/10/20 10:53 KTKI 201053Z 00000KT 10SM CLR 12/11 A2981 RMK AO2 SLP094 T01170106
 
KDAL - Dallas/Love Fld, Texas, USA
Distance from station: SSW 18mi, 30km
Updated: Sun, 20-Oct-2019 5:53am CDT
Clear
Clear
 Wind from calm
Wind: Calm
Temperature: 57°F , 14°C
Dew Point: 54°F , 12°C
Humidity: 88%
Barometer: 29.82 inHg , 1009.8 hPa
Clouds: Clear
Visibility: 10 miles , 16 km
2019/10/20 10:53 KDAL 201053Z 00000KT 10SM CLR 14/12 A2982 RMK AO2 SLP091 T01440122 $
KDFW - Dallas/Ft Worth, Texas, USA
Distance from station: SW 21mi, 34km
Updated: Sun, 20-Oct-2019 5:53am CDT
Clear
Clear
 Wind from calm
Wind: Calm
Temperature: 55°F , 13°C
Dew Point: 54°F , 12°C
Humidity: 94%
Barometer: 29.80 inHg , 1009.1 hPa
Clouds: Clear
Visibility: 10 miles , 16 km
2019/10/20 10:53 KDFW 201053Z 00000KT 10SM CLR 13/12 A2980 RMK AO2 SLP084 T01330117
 
KF46 - Rockwall, Texas, USA
Distance from station: ESE 22mi, 35km
Updated: Sun, 20-Oct-2019 6:15am CDT
Clear
Clear
 Wind from calm
Wind: Calm
Temperature: 55°F , 13°C
Dew Point: 55°F , 13°C
Humidity: 100%
Barometer: 29.82 inHg , 1009.8 hPa
Clouds: Clear
Visibility: 10 miles , 16 km
2019/10/20 11:15 KF46 201115Z AUTO 00000KT 10SM CLR 13/13 A2982 RMK AO2 T01300130
KDTO - Denton, Texas, USA
Distance from station: WNW 27mi, 43km
Updated: Sun, 20-Oct-2019 5:53am CDT
Clear
Clear
 Wind from calm
Wind: Calm
Temperature: 48°F , 9°C
Dew Point: 45°F , 7°C
Humidity: 87%
Barometer: 29.81 inHg , 1009.5 hPa
Clouds: Clear
Visibility: 10 miles , 16 km
2019/10/20 10:53 KDTO 201053Z AUTO 00000KT 10SM CLR 09/07 A2981 RMK AO2 SLP088 T00890072
 
KHQZ - Mesquite, Texas, USA
Distance from station: SSE 28mi, 44km
Updated: Sun, 20-Oct-2019 6:15am CDT
Clear
Clear
 Wind from calm
Wind: Calm
Temperature: 57°F , 14°C
Dew Point: 55°F , 13°C
Humidity: 94%
Barometer: 29.83 inHg , 1010.2 hPa
Clouds: Clear
Visibility: 10 miles , 16 km
2019/10/20 11:15 KHQZ 201115Z AUTO 00000KT 10SM CLR 14/13 A2983 RMK AO1 T01350125
KRBD - Dallas/Redbird, Texas, USA
Distance from station: SSW 30mi, 48km
Updated: Sun, 20-Oct-2019 5:53am CDT
Clear
Clear
 Wind from calm
Wind: Calm
Temperature: 55°F , 13°C
Dew Point: 52°F , 11°C
Humidity: 88%
Barometer: 29.81 inHg , 1009.5 hPa
Clouds: Clear
Visibility: 10 miles , 16 km
2019/10/20 10:53 KRBD 201053Z AUTO 00000KT 10SM CLR 13/11 A2981 RMK AO2 SLP089 T01280111
 
KGPM - Grand Prairie, Texas, USA
Distance from station: SSW 33mi, 53km
Updated: Sun, 20-Oct-2019 6:15am CDT
Clear
Clear
 Wind from calm
Wind: Calm
Temperature: 57°F , 14°C
Dew Point: 50°F , 10°C
Humidity: 77%
Barometer: 29.83 inHg , 1010.2 hPa
Clouds: Clear
Visibility: 10 miles , 16 km
2019/10/20 11:15 KGPM 201115Z AUTO 00000KT 10SM CLR 14/10 A2983 RMK AO2 T01350104
KAFW - Ft Worth/Allianc, Texas, USA
Distance from station: WSW 34mi, 55km
Updated: Sun, 20-Oct-2019 5:53am CDT
Clear
Clear
 Wind from calm
Wind: Calm
Temperature: 55°F , 13°C
Dew Point: 48°F , 9°C
Humidity: 77%
Barometer: 29.80 inHg , 1009.1 hPa
Clouds: Clear
Visibility: 10 miles , 16 km
2019/10/20 10:53 KAFW 201053Z 00000KT 10SM CLR 13/09 A2980 RMK AO2 SLP083 T01280089
 
KLNC - Lancaster, Texas, USA
Distance from station: S 36mi, 58km
Updated: Sun, 20-Oct-2019 6:15am CDT
Clear
Clear
 Wind from calm
Wind: Calm
Temperature: 54°F , 12°C
Dew Point: 52°F , 11°C
Humidity: 94%
Barometer: 29.83 inHg , 1010.2 hPa
Clouds: Clear
Visibility: 10 miles , 16 km
2019/10/20 11:15 KLNC 201115Z AUTO 00000KT 10SM CLR 12/11 A2983 RMK AO2 T01190106
KGKY - Arlington, Texas, USA
Distance from station: SSW 36mi, 59km
Updated: Sun, 20-Oct-2019 5:53am CDT
Clear
Clear
 Wind from calm
Wind: Calm
Temperature: 52°F , 11°C
Dew Point: 50°F , 10°C
Humidity: 94%
Barometer: 29.82 inHg , 1009.8 hPa
Clouds: Clear
Visibility: 10 miles , 16 km
2019/10/20 10:53 KGKY 201053Z AUTO 00000KT 10SM CLR 11/10 A2982 RMK AO2 SLP090 T01110100
 
KTRL - Terrell, Texas, USA
Distance from station: SE 39mi, 63km
Updated: Sun, 20-Oct-2019 5:53am CDT
Clear
Clear
 Wind from calm
Wind: Calm
Temperature: 55°F , 13°C
Dew Point: 54°F , 12°C
Humidity: 94%
Barometer: 29.81 inHg , 1009.5 hPa
Clouds: Clear
Visibility: 10 miles , 16 km
2019/10/20 10:53 KTRL 201053Z AUTO 00000KT 10SM CLR 13/12 A2981 RMK AO2 SLP089 T01330117
KGVT - Greenville/Major, Texas, USA
Distance from station: E 40mi, 64km
Updated: Sun, 20-Oct-2019 6:15am CDT
Clear
Clear
 Wind from calm
Wind: Calm
Temperature: 59°F , 15°C
Barometer: 29.82 inHg , 1009.8 hPa
Clouds: Clear
Visibility: 10 miles , 16 km
2019/10/20 11:15 KGVT 201115Z AUTO 00000KT 10SM CLR 15/ A2982 RMK AO2
 
KFTW - Fort Worth, Texas, USA
Distance from station: WSW 40mi, 65km
Updated: Sun, 20-Oct-2019 5:53am CDT
Clear
Clear
 Wind from calm
Wind: Calm
Temperature: 54°F , 12°C
Dew Point: 50°F , 10°C
Humidity: 88%
Barometer: 29.80 inHg , 1009.1 hPa
Clouds: Clear
Visibility: 10 miles , 16 km
2019/10/20 10:53 KFTW 201053Z AUTO 00000KT 10SM CLR 12/10 A2980 RMK AO2 SLP087 T01220100
KGYI - Sherman/Denison, Texas, USA
Distance from station: N 43mi, 69km
Updated: Sun, 20-Oct-2019 6:15am CDT
Clear
Clear
 Wind from calm
Wind: Calm
Temperature: 52°F , 11°C
Dew Point: 50°F , 10°C
Humidity: 94%
Barometer: 29.82 inHg , 1009.8 hPa
Clouds: Clear
Visibility: 10 miles , 16 km
2019/10/20 11:15 KGYI 201115Z AUTO 00000KT 10SM CLR 11/10 A2982 RMK AO2 T01120099
 
KNFW - Fort Worth Nas, Texas, USA
Distance from station: WSW 45mi, 73km
Updated: Sun, 20-Oct-2019 6:11am CDT
Clear
Clear
 Wind from S
Wind: S 3 mph , 6 km/h
Temperature: 55°F , 13°C
Dew Point: 50°F , 10°C
Humidity: 82%
Barometer: 29.82 inHg , 1009.8 hPa
Clouds: Clear
Visibility: 10 miles , 16 km
2019/10/20 11:11 KNFW 201111Z 18003KT 10SM CLR 13/10 A2982 RMK AO2 T01280100 CHINO N VISNO N $
KGLE - Gainesville, Texas, USA
Distance from station: NW 46mi, 74km
Updated: Sun, 20-Oct-2019 6:15am CDT
Clear
Clear
 Wind from calm
Wind: Calm
Temperature: 48°F , 9°C
Dew Point: 46°F , 8°C
Humidity: 94%
Barometer: 29.83 inHg , 1010.2 hPa
Clouds: Clear
Visibility: 10 miles , 16 km
2019/10/20 11:15 KGLE 201115Z AUTO 00000KT 10SM CLR 09/08 A2983 RMK AO2 T00920082
 
KJWY - Midlothian/Wax, Texas, USA
Distance from station: SSW 46mi, 74km
Updated: Sun, 20-Oct-2019 6:15am CDT
Clear
Clear
 Wind from calm
Wind: Calm
Temperature: 54°F , 12°C
Dew Point: 54°F , 12°C
Humidity: 100%
Barometer: 29.84 inHg , 1010.5 hPa
Clouds: Clear
Visibility: 10 miles , 16 km
2019/10/20 11:15 KJWY 201115Z AUTO 00000KT 10SM CLR 12/12 A2984 RMK AO2 T01210121
KFWS - Fort Worth/88d, Texas, USA
Distance from station: SW 49mi, 79km
Updated: Sun, 20-Oct-2019 6:15am CDT
Clear
Clear
 Wind from calm
Wind: Calm
Temperature: 48°F , 9°C
Dew Point: 48°F , 9°C
Humidity: 100%
Barometer: 29.84 inHg , 1010.5 hPa
Clouds: Clear
Visibility: 10 miles , 16 km
2019/10/20 11:15 KFWS 201115Z AUTO 00000KT 10SM CLR 09/09 A2984 RMK AO2 T00940085